sensor_id;sensor_type;location;lat;lon;timestamp;temperature;humidity
59311;DHT22;45078;51.654;21.250;2024-03-02T00:02:14;6.80;99.90
59311;DHT22;45078;51.654;21.250;2024-03-02T00:04:40;6.80;99.90
59311;DHT22;45078;51.654;21.250;2024-03-02T00:07:09;6.80;99.90
59311;DHT22;45078;51.654;21.250;2024-03-02T00:09:35;6.70;99.90
59311;DHT22;45078;51.654;21.250;2024-03-02T00:12:02;6.70;99.90
59311;DHT22;45078;51.654;21.250;2024-03-02T00:14:31;6.80;99.90
59311;DHT22;45078;51.654;21.250;2024-03-02T00:16:57;6.80;99.90
59311;DHT22;45078;51.654;21.250;2024-03-02T00:19:24;6.80;99.90
59311;DHT22;45078;51.654;21.250;2024-03-02T00:21:50;6.80;99.90
59311;DHT22;45078;51.654;21.250;2024-03-02T00:24:21;6.80;99.90
59311;DHT22;45078;51.654;21.250;2024-03-02T00:26:52;6.80;99.90
59311;DHT22;45078;51.654;21.250;2024-03-02T00:29:17;6.70;99.90
59311;DHT22;45078;51.654;21.250;2024-03-02T00:31:45;6.70;99.90
59311;DHT22;45078;51.654;21.250;2024-03-02T00:34:13;6.70;99.90
59311;DHT22;45078;51.654;21.250;2024-03-02T00:36:39;6.70;99.90
59311;DHT22;45078;51.654;21.250;2024-03-02T00:39:05;6.70;99.90
59311;DHT22;45078;51.654;21.250;2024-03-02T00:41:33;6.70;99.90
59311;DHT22;45078;51.654;21.250;2024-03-02T00:44:02;6.70;99.90
59311;DHT22;45078;51.654;21.250;2024-03-02T00:46:39;6.70;99.90
59311;DHT22;45078;51.654;21.250;2024-03-02T00:51:48;6.60;99.90
59311;DHT22;45078;51.654;21.250;2024-03-02T00:54:22;6.70;99.90
59311;DHT22;45078;51.654;21.250;2024-03-02T00:56:49;6.60;99.90
59311;DHT22;45078;51.654;21.250;2024-03-02T00:59:15;6.70;99.90
59311;DHT22;45078;51.654;21.250;2024-03-02T01:01:41;6.60;99.90
59311;DHT22;45078;51.654;21.250;2024-03-02T01:04:07;6.60;99.90
59311;DHT22;45078;51.654;21.250;2024-03-02T01:06:34;6.60;99.90
59311;DHT22;45078;51.654;21.250;2024-03-02T01:09:00;6.70;99.90
59311;DHT22;45078;51.654;21.250;2024-03-02T01:11:25;6.60;99.90
59311;DHT22;45078;51.654;21.250;2024-03-02T01:13:51;6.60;99.90
59311;DHT22;45078;51.654;21.250;2024-03-02T01:16:17;6.50;99.90
59311;DHT22;45078;51.654;21.250;2024-03-02T01:18:43;6.60;99.90
59311;DHT22;45078;51.654;21.250;2024-03-02T01:21:09;6.50;99.90
59311;DHT22;45078;51.654;21.250;2024-03-02T01:23:35;6.50;99.90
59311;DHT22;45078;51.654;21.250;2024-03-02T01:26:00;6.60;99.90
59311;DHT22;45078;51.654;21.250;2024-03-02T01:28:26;6.60;99.90
59311;DHT22;45078;51.654;21.250;2024-03-02T01:30:51;6.60;99.90
59311;DHT22;45078;51.654;21.250;2024-03-02T01:33:17;6.60;99.90
59311;DHT22;45078;51.654;21.250;2024-03-02T01:35:43;6.60;99.90
59311;DHT22;45078;51.654;21.250;2024-03-02T01:38:09;6.50;99.90
59311;DHT22;45078;51.654;21.250;2024-03-02T01:40:36;6.50;99.90
59311;DHT22;45078;51.654;21.250;2024-03-02T01:43:02;6.40;99.90
59311;DHT22;45078;51.654;21.250;2024-03-02T01:45:28;6.40;99.90
59311;DHT22;45078;51.654;21.250;2024-03-02T01:47:54;6.40;99.90
59311;DHT22;45078;51.654;21.250;2024-03-02T01:50:29;6.50;99.90
59311;DHT22;45078;51.654;21.250;2024-03-02T01:52:57;6.40;99.90
59311;DHT22;45078;51.654;21.250;2024-03-02T01:55:22;6.40;99.90
59311;DHT22;45078;51.654;21.250;2024-03-02T01:57:49;6.40;99.90
59311;DHT22;45078;51.654;21.250;2024-03-02T02:00:16;6.40;99.90
59311;DHT22;45078;51.654;21.250;2024-03-02T02:02:43;6.30;99.90
59311;DHT22;45078;51.654;21.250;2024-03-02T02:05:08;6.40;99.90
59311;DHT22;45078;51.654;21.250;2024-03-02T02:07:35;6.30;99.90
59311;DHT22;45078;51.654;21.250;2024-03-02T02:10:01;6.40;99.90
59311;DHT22;45078;51.654;21.250;2024-03-02T02:12:27;6.30;99.90
59311;DHT22;45078;51.654;21.250;2024-03-02T02:14:52;6.30;99.90
59311;DHT22;45078;51.654;21.250;2024-03-02T02:17:18;6.30;99.90
59311;DHT22;45078;51.654;21.250;2024-03-02T02:19:44;6.20;99.90
59311;DHT22;45078;51.654;21.250;2024-03-02T02:22:10;6.30;99.90
59311;DHT22;45078;51.654;21.250;2024-03-02T02:24:39;6.20;99.90
59311;DHT22;45078;51.654;21.250;2024-03-02T02:27:05;6.20;99.90
59311;DHT22;45078;51.654;21.250;2024-03-02T02:29:30;6.10;99.90
59311;DHT22;45078;51.654;21.250;2024-03-02T02:31:56;6.10;99.90
59311;DHT22;45078;51.654;21.250;2024-03-02T02:34:21;6.10;99.90
59311;DHT22;45078;51.654;21.250;2024-03-02T02:36:47;6.10;99.90
59311;DHT22;45078;51.654;21.250;2024-03-02T02:39:15;6.10;99.90
59311;DHT22;45078;51.654;21.250;2024-03-02T02:41:41;6.10;99.90
59311;DHT22;45078;51.654;21.250;2024-03-02T02:44:08;6.10;99.90
59311;DHT22;45078;51.654;21.250;2024-03-02T02:46:33;6.10;99.90
59311;DHT22;45078;51.654;21.250;2024-03-02T02:48:59;6.10;99.90
59311;DHT22;45078;51.654;21.250;2024-03-02T02:51:25;6.10;99.90
59311;DHT22;45078;51.654;21.250;2024-03-02T02:53:51;6.10;99.90
59311;DHT22;45078;51.654;21.250;2024-03-02T02:56:16;6.20;99.90
59311;DHT22;45078;51.654;21.250;2024-03-02T02:58:42;6.00;99.90
59311;DHT22;45078;51.654;21.250;2024-03-02T03:01:08;6.10;99.90
59311;DHT22;45078;51.654;21.250;2024-03-02T03:03:34;6.00;99.90
59311;DHT22;45078;51.654;21.250;2024-03-02T03:05:59;6.00;99.90
59311;DHT22;45078;51.654;21.250;2024-03-02T03:08:25;6.00;99.90
59311;DHT22;45078;51.654;21.250;2024-03-02T03:10:51;5.90;99.90
59311;DHT22;45078;51.654;21.250;2024-03-02T03:13:16;6.00;99.90
59311;DHT22;45078;51.654;21.250;2024-03-02T03:15:42;6.00;99.90
59311;DHT22;45078;51.654;21.250;2024-03-02T03:18:08;6.00;99.90
59311;DHT22;45078;51.654;21.250;2024-03-02T03:20:36;6.00;99.90
59311;DHT22;45078;51.654;21.250;2024-03-02T03:23:02;6.00;99.90
59311;DHT22;45078;51.654;21.250;2024-03-02T03:25:29;6.00;99.90
59311;DHT22;45078;51.654;21.250;2024-03-02T03:27:55;5.90;99.90
59311;DHT22;45078;51.654;21.250;2024-03-02T03:30:21;6.00;99.90
59311;DHT22;45078;51.654;21.250;2024-03-02T03:32:46;5.90;99.90
59311;DHT22;45078;51.654;21.250;2024-03-02T03:35:13;5.90;99.90
59311;DHT22;45078;51.654;21.250;2024-03-02T03:37:41;5.90;99.90
59311;DHT22;45078;51.654;21.250;2024-03-02T03:40:07;5.90;99.90
59311;DHT22;45078;51.654;21.250;2024-03-02T03:42:38;5.90;99.90
59311;DHT22;45078;51.654;21.250;2024-03-02T03:45:05;6.00;99.90
59311;DHT22;45078;51.654;21.250;2024-03-02T03:47:31;5.90;99.90
59311;DHT22;45078;51.654;21.250;2024-03-02T03:49:57;6.00;99.90
59311;DHT22;45078;51.654;21.250;2024-03-02T03:52:23;5.90;99.90
59311;DHT22;45078;51.654;21.250;2024-03-02T03:54:49;6.00;99.90
59311;DHT22;45078;51.654;21.250;2024-03-02T03:57:15;5.90;99.90
59311;DHT22;45078;51.654;21.250;2024-03-02T03:59:40;6.00;99.90
59311;DHT22;45078;51.654;21.250;2024-03-02T04:02:06;6.00;99.90
59311;DHT22;45078;51.654;21.250;2024-03-02T04:04:32;6.00;99.90
59311;DHT22;45078;51.654;21.250;2024-03-02T04:06:59;6.00;99.90
59311;DHT22;45078;51.654;21.250;2024-03-02T04:09:24;6.00;99.90
59311;DHT22;45078;51.654;21.250;2024-03-02T04:11:51;6.00;99.90
59311;DHT22;45078;51.654;21.250;2024-03-02T04:14:17;6.10;99.90
59311;DHT22;45078;51.654;21.250;2024-03-02T04:16:43;6.10;99.90
59311;DHT22;45078;51.654;21.250;2024-03-02T04:19:08;6.00;99.90
59311;DHT22;45078;51.654;21.250;2024-03-02T04:21:34;6.00;99.90
59311;DHT22;45078;51.654;21.250;2024-03-02T04:24:00;6.10;99.90
59311;DHT22;45078;51.654;21.250;2024-03-02T04:26:26;6.10;99.90
59311;DHT22;45078;51.654;21.250;2024-03-02T04:28:55;6.10;99.90
59311;DHT22;45078;51.654;21.250;2024-03-02T04:31:20;6.10;99.90
59311;DHT22;45078;51.654;21.250;2024-03-02T04:33:46;6.10;99.90
59311;DHT22;45078;51.654;21.250;2024-03-02T04:36:12;6.10;99.90
59311;DHT22;45078;51.654;21.250;2024-03-02T04:38:38;6.10;99.90
59311;DHT22;45078;51.654;21.250;2024-03-02T04:41:04;6.10;99.90
59311;DHT22;45078;51.654;21.250;2024-03-02T04:43:34;6.20;99.90
59311;DHT22;45078;51.654;21.250;2024-03-02T04:46:00;6.10;99.90
59311;DHT22;45078;51.654;21.250;2024-03-02T04:48:25;6.20;99.90
59311;DHT22;45078;51.654;21.250;2024-03-02T04:50:51;6.10;99.90
59311;DHT22;45078;51.654;21.250;2024-03-02T04:53:17;6.10;99.90
59311;DHT22;45078;51.654;21.250;2024-03-02T04:55:43;6.10;99.90
59311;DHT22;45078;51.654;21.250;2024-03-02T04:58:08;6.20;99.90
59311;DHT22;45078;51.654;21.250;2024-03-02T05:00:34;6.20;99.90
59311;DHT22;45078;51.654;21.250;2024-03-02T05:03:00;6.20;99.90
59311;DHT22;45078;51.654;21.250;2024-03-02T05:05:26;6.20;99.90
59311;DHT22;45078;51.654;21.250;2024-03-02T05:07:52;6.20;99.90
59311;DHT22;45078;51.654;21.250;2024-03-02T05:10:18;6.20;99.90
59311;DHT22;45078;51.654;21.250;2024-03-02T05:12:44;6.20;99.90
59311;DHT22;45078;51.654;21.250;2024-03-02T05:15:13;6.20;99.90
59311;DHT22;45078;51.654;21.250;2024-03-02T05:17:40;6.20;99.90
59311;DHT22;45078;51.654;21.250;2024-03-02T05:20:08;6.20;99.90
59311;DHT22;45078;51.654;21.250;2024-03-02T05:22:35;6.20;99.90
59311;DHT22;45078;51.654;21.250;2024-03-02T05:25:01;6.20;99.90
59311;DHT22;45078;51.654;21.250;2024-03-02T05:27:27;6.20;99.90
59311;DHT22;45078;51.654;21.250;2024-03-02T05:29:53;6.20;99.90
59311;DHT22;45078;51.654;21.250;2024-03-02T05:32:19;6.30;99.90
59311;DHT22;45078;51.654;21.250;2024-03-02T05:34:45;6.20;99.90
59311;DHT22;45078;51.654;21.250;2024-03-02T05:37:11;6.20;99.90
59311;DHT22;45078;51.654;21.250;2024-03-02T05:39:36;6.30;99.90
59311;DHT22;45078;51.654;21.250;2024-03-02T05:42:02;6.20;99.90
59311;DHT22;45078;51.654;21.250;2024-03-02T05:44:29;6.30;99.90
59311;DHT22;45078;51.654;21.250;2024-03-02T05:46:55;6.30;99.90
59311;DHT22;45078;51.654;21.250;2024-03-02T05:49:20;6.30;99.90
59311;DHT22;45078;51.654;21.250;2024-03-02T05:51:46;6.30;99.90
59311;DHT22;45078;51.654;21.250;2024-03-02T05:54:12;6.40;99.90
59311;DHT22;45078;51.654;21.250;2024-03-02T05:56:37;6.40;99.90
59311;DHT22;45078;51.654;21.250;2024-03-02T05:59:03;6.40;99.90
59311;DHT22;45078;51.654;21.250;2024-03-02T06:01:35;6.40;99.90
59311;DHT22;45078;51.654;21.250;2024-03-02T06:04:00;6.40;99.90
59311;DHT22;45078;51.654;21.250;2024-03-02T06:06:26;6.40;99.90
59311;DHT22;45078;51.654;21.250;2024-03-02T06:08:53;6.40;99.90
59311;DHT22;45078;51.654;21.250;2024-03-02T06:11:21;6.40;99.90
59311;DHT22;45078;51.654;21.250;2024-03-02T06:13:47;6.40;99.90
59311;DHT22;45078;51.654;21.250;2024-03-02T06:16:13;6.40;99.90
59311;DHT22;45078;51.654;21.250;2024-03-02T06:18:39;6.50;99.90
59311;DHT22;45078;51.654;21.250;2024-03-02T06:21:04;6.40;99.90
59311;DHT22;45078;51.654;21.250;2024-03-02T06:23:30;6.50;99.90
59311;DHT22;45078;51.654;21.250;2024-03-02T06:25:56;6.50;99.90
59311;DHT22;45078;51.654;21.250;2024-03-02T06:28:22;6.50;99.90
59311;DHT22;45078;51.654;21.250;2024-03-02T06:30:47;6.50;99.90
59311;DHT22;45078;51.654;21.250;2024-03-02T06:33:13;6.50;99.90
59311;DHT22;45078;51.654;21.250;2024-03-02T06:35:39;6.50;99.90
59311;DHT22;45078;51.654;21.250;2024-03-02T06:38:04;6.50;99.90
59311;DHT22;45078;51.654;21.250;2024-03-02T06:40:30;6.50;99.90
59311;DHT22;45078;51.654;21.250;2024-03-02T06:42:56;6.50;99.90
59311;DHT22;45078;51.654;21.250;2024-03-02T06:45:21;6.60;99.90
59311;DHT22;45078;51.654;21.250;2024-03-02T06:47:47;6.60;99.90
59311;DHT22;45078;51.654;21.250;2024-03-02T06:50:13;6.60;99.90
59311;DHT22;45078;51.654;21.250;2024-03-02T06:52:38;6.60;99.90
59311;DHT22;45078;51.654;21.250;2024-03-02T06:55:04;6.60;99.90
59311;DHT22;45078;51.654;21.250;2024-03-02T06:57:30;6.60;99.90
59311;DHT22;45078;51.654;21.250;2024-03-02T06:59:56;6.60;99.90
59311;DHT22;45078;51.654;21.250;2024-03-02T07:02:24;6.70;99.90
59311;DHT22;45078;51.654;21.250;2024-03-02T07:04:55;6.60;99.90
59311;DHT22;45078;51.654;21.250;2024-03-02T07:07:21;6.70;99.90
59311;DHT22;45078;51.654;21.250;2024-03-02T07:09:46;6.70;99.90
59311;DHT22;45078;51.654;21.250;2024-03-02T07:12:13;6.70;99.90
59311;DHT22;45078;51.654;21.250;2024-03-02T07:14:39;6.80;99.90
59311;DHT22;45078;51.654;21.250;2024-03-02T07:17:23;6.80;99.90
59311;DHT22;45078;51.654;21.250;2024-03-02T07:19:49;6.80;99.90
59311;DHT22;45078;51.654;21.250;2024-03-02T07:22:14;6.80;99.90
59311;DHT22;45078;51.654;21.250;2024-03-02T07:24:41;6.80;99.90
59311;DHT22;45078;51.654;21.250;2024-03-02T07:27:07;6.80;99.90
59311;DHT22;45078;51.654;21.250;2024-03-02T07:29:33;6.90;99.90
59311;DHT22;45078;51.654;21.250;2024-03-02T07:31:59;6.80;99.90
59311;DHT22;45078;51.654;21.250;2024-03-02T07:34:24;6.80;99.90
59311;DHT22;45078;51.654;21.250;2024-03-02T07:36:50;6.90;99.90
59311;DHT22;45078;51.654;21.250;2024-03-02T07:39:16;7.00;99.90
59311;DHT22;45078;51.654;21.250;2024-03-02T07:41:42;7.00;99.90
59311;DHT22;45078;51.654;21.250;2024-03-02T07:44:07;7.00;99.90
59311;DHT22;45078;51.654;21.250;2024-03-02T07:46:33;7.00;99.90
59311;DHT22;45078;51.654;21.250;2024-03-02T07:48:59;7.00;99.90
59311;DHT22;45078;51.654;21.250;2024-03-02T07:51:24;7.00;99.90
59311;DHT22;45078;51.654;21.250;2024-03-02T07:53:50;7.00;99.90
59311;DHT22;45078;51.654;21.250;2024-03-02T07:56:16;7.00;99.90
59311;DHT22;45078;51.654;21.250;2024-03-02T07:58:48;7.00;99.90
59311;DHT22;45078;51.654;21.250;2024-03-02T08:01:14;7.00;99.90
59311;DHT22;45078;51.654;21.250;2024-03-02T08:03:40;6.90;99.90
59311;DHT22;45078;51.654;21.250;2024-03-02T08:06:06;7.00;99.90
59311;DHT22;45078;51.654;21.250;2024-03-02T08:08:32;7.00;99.90
59311;DHT22;45078;51.654;21.250;2024-03-02T08:10:57;7.10;99.90
59311;DHT22;45078;51.654;21.250;2024-03-02T08:13:23;7.00;99.90
59311;DHT22;45078;51.654;21.250;2024-03-02T08:15:49;7.00;99.90
59311;DHT22;45078;51.654;21.250;2024-03-02T08:18:15;7.00;99.90
59311;DHT22;45078;51.654;21.250;2024-03-02T08:20:40;7.10;99.90
59311;DHT22;45078;51.654;21.250;2024-03-02T08:23:06;7.10;99.90
59311;DHT22;45078;51.654;21.250;2024-03-02T08:25:33;7.10;99.90
59311;DHT22;45078;51.654;21.250;2024-03-02T08:27:59;7.10;99.90
59311;DHT22;45078;51.654;21.250;2024-03-02T08:30:25;7.10;99.90
59311;DHT22;45078;51.654;21.250;2024-03-02T08:32:50;7.10;99.90
59311;DHT22;45078;51.654;21.250;2024-03-02T08:35:16;7.20;99.90
59311;DHT22;45078;51.654;21.250;2024-03-02T08:37:42;7.20;99.90
59311;DHT22;45078;51.654;21.250;2024-03-02T08:40:09;7.10;99.90
59311;DHT22;45078;51.654;21.250;2024-03-02T08:42:35;7.20;99.90
59311;DHT22;45078;51.654;21.250;2024-03-02T08:45:01;7.20;99.90
59311;DHT22;45078;51.654;21.250;2024-03-02T08:47:27;7.20;99.90
59311;DHT22;45078;51.654;21.250;2024-03-02T08:49:53;7.30;99.90
59311;DHT22;45078;51.654;21.250;2024-03-02T08:52:19;7.30;99.90
59311;DHT22;45078;51.654;21.250;2024-03-02T08:54:44;7.30;99.90
59311;DHT22;45078;51.654;21.250;2024-03-02T08:57:10;7.40;99.90
59311;DHT22;45078;51.654;21.250;2024-03-02T08:59:36;7.40;99.90
59311;DHT22;45078;51.654;21.250;2024-03-02T09:02:02;7.40;99.90
59311;DHT22;45078;51.654;21.250;2024-03-02T09:04:28;7.40;99.90
59311;DHT22;45078;51.654;21.250;2024-03-02T09:06:54;7.40;99.90
59311;DHT22;45078;51.654;21.250;2024-03-02T09:09:20;7.50;99.90
59311;DHT22;45078;51.654;21.250;2024-03-02T09:11:46;7.50;99.90
59311;DHT22;45078;51.654;21.250;2024-03-02T09:14:12;7.50;99.90
59311;DHT22;45078;51.654;21.250;2024-03-02T09:16:40;7.50;99.90
59311;DHT22;45078;51.654;21.250;2024-03-02T09:19:06;7.50;99.90
59311;DHT22;45078;51.654;21.250;2024-03-02T09:21:31;7.50;99.90
59311;DHT22;45078;51.654;21.250;2024-03-02T09:23:57;7.60;99.90
59311;DHT22;45078;51.654;21.250;2024-03-02T09:26:23;7.60;99.90
59311;DHT22;45078;51.654;21.250;2024-03-02T09:28:50;7.70;99.90
59311;DHT22;45078;51.654;21.250;2024-03-02T09:31:16;7.60;99.90
59311;DHT22;45078;51.654;21.250;2024-03-02T09:33:42;7.60;99.90
59311;DHT22;45078;51.654;21.250;2024-03-02T09:36:20;7.60;99.90
59311;DHT22;45078;51.654;21.250;2024-03-02T09:38:47;7.60;99.90
59311;DHT22;45078;51.654;21.250;2024-03-02T09:41:14;7.70;99.90
59311;DHT22;45078;51.654;21.250;2024-03-02T09:43:40;7.70;99.90
59311;DHT22;45078;51.654;21.250;2024-03-02T09:46:10;7.70;99.90
59311;DHT22;45078;51.654;21.250;2024-03-02T09:48:36;7.70;99.90
59311;DHT22;45078;51.654;21.250;2024-03-02T09:51:04;7.80;99.90
59311;DHT22;45078;51.654;21.250;2024-03-02T09:53:32;7.90;99.90
59311;DHT22;45078;51.654;21.250;2024-03-02T09:55:59;7.90;99.90
59311;DHT22;45078;51.654;21.250;2024-03-02T09:58:25;7.90;99.90
59311;DHT22;45078;51.654;21.250;2024-03-02T10:00:51;7.90;99.90
59311;DHT22;45078;51.654;21.250;2024-03-02T10:03:18;8.00;99.90
59311;DHT22;45078;51.654;21.250;2024-03-02T10:05:44;8.00;99.90
59311;DHT22;45078;51.654;21.250;2024-03-02T10:08:10;8.00;99.90
59311;DHT22;45078;51.654;21.250;2024-03-02T10:10:39;8.00;99.90
59311;DHT22;45078;51.654;21.250;2024-03-02T10:13:10;8.00;99.90
59311;DHT22;45078;51.654;21.250;2024-03-02T10:15:37;8.10;99.90
59311;DHT22;45078;51.654;21.250;2024-03-02T10:18:04;8.00;99.90
59311;DHT22;45078;51.654;21.250;2024-03-02T10:20:30;8.00;99.90
59311;DHT22;45078;51.654;21.250;2024-03-02T10:23:13;8.10;99.90
59311;DHT22;45078;51.654;21.250;2024-03-02T10:25:39;8.10;99.90
59311;DHT22;45078;51.654;21.250;2024-03-02T10:28:05;8.10;99.90
59311;DHT22;45078;51.654;21.250;2024-03-02T10:30:32;8.20;99.90
59311;DHT22;45078;51.654;21.250;2024-03-02T10:32:58;8.20;99.90
59311;DHT22;45078;51.654;21.250;2024-03-02T10:35:24;8.20;99.90
59311;DHT22;45078;51.654;21.250;2024-03-02T10:37:52;8.30;99.90
59311;DHT22;45078;51.654;21.250;2024-03-02T10:40:18;8.30;99.90
59311;DHT22;45078;51.654;21.250;2024-03-02T10:42:47;8.30;99.90
59311;DHT22;45078;51.654;21.250;2024-03-02T10:45:15;8.40;99.90
59311;DHT22;45078;51.654;21.250;2024-03-02T10:47:43;8.50;99.90
59311;DHT22;45078;51.654;21.250;2024-03-02T10:50:09;8.40;99.90
59311;DHT22;45078;51.654;21.250;2024-03-02T10:52:36;8.50;99.90
59311;DHT22;45078;51.654;21.250;2024-03-02T10:55:02;8.60;99.90
59311;DHT22;45078;51.654;21.250;2024-03-02T11:00:15;8.70;99.90
59311;DHT22;45078;51.654;21.250;2024-03-02T11:02:55;8.80;99.90
59311;DHT22;45078;51.654;21.250;2024-03-02T11:05:29;8.80;99.90
59311;DHT22;45078;51.654;21.250;2024-03-02T11:08:07;8.80;99.90
59311;DHT22;45078;51.654;21.250;2024-03-02T11:13:57;9.10;99.90
59311;DHT22;45078;51.654;21.250;2024-03-02T11:16:33;9.00;99.90
59311;DHT22;45078;51.654;21.250;2024-03-02T11:19:04;8.90;99.90
59311;DHT22;45078;51.654;21.250;2024-03-02T11:21:32;9.00;99.90
59311;DHT22;45078;51.654;21.250;2024-03-02T11:23:58;9.00;99.90
59311;DHT22;45078;51.654;21.250;2024-03-02T11:26:24;9.10;99.90
59311;DHT22;45078;51.654;21.250;2024-03-02T11:28:50;9.30;99.90
59311;DHT22;45078;51.654;21.250;2024-03-02T11:31:16;9.30;99.90
59311;DHT22;45078;51.654;21.250;2024-03-02T11:33:41;9.30;99.90
59311;DHT22;45078;51.654;21.250;2024-03-02T11:36:09;9.30;99.90
59311;DHT22;45078;51.654;21.250;2024-03-02T11:38:35;9.50;99.90
59311;DHT22;45078;51.654;21.250;2024-03-02T11:41:03;9.50;99.90
59311;DHT22;45078;51.654;21.250;2024-03-02T11:43:32;9.40;99.90
59311;DHT22;45078;51.654;21.250;2024-03-02T11:45:59;9.60;99.90
59311;DHT22;45078;51.654;21.250;2024-03-02T11:48:25;9.70;99.90
59311;DHT22;45078;51.654;21.250;2024-03-02T11:50:52;9.60;99.90
59311;DHT22;45078;51.654;21.250;2024-03-02T11:53:19;9.70;99.90
59311;DHT22;45078;51.654;21.250;2024-03-02T11:55:45;9.60;99.90
59311;DHT22;45078;51.654;21.250;2024-03-02T11:58:15;9.70;99.90
59311;DHT22;45078;51.654;21.250;2024-03-02T12:00:46;9.50;99.90
59311;DHT22;45078;51.654;21.250;2024-03-02T12:03:13;9.50;99.90
59311;DHT22;45078;51.654;21.250;2024-03-02T12:05:39;9.50;99.90
59311;DHT22;45078;51.654;21.250;2024-03-02T12:08:06;9.60;99.90
59311;DHT22;45078;51.654;21.250;2024-03-02T12:10:33;9.60;99.90
59311;DHT22;45078;51.654;21.250;2024-03-02T12:13:06;9.70;99.90
59311;DHT22;45078;51.654;21.250;2024-03-02T12:15:34;9.70;99.90
59311;DHT22;45078;51.654;21.250;2024-03-02T12:18:02;9.70;99.90
59311;DHT22;45078;51.654;21.250;2024-03-02T12:20:30;9.70;99.90
59311;DHT22;45078;51.654;21.250;2024-03-02T12:22:58;9.70;99.90
59311;DHT22;45078;51.654;21.250;2024-03-02T12:25:24;9.70;99.90
59311;DHT22;45078;51.654;21.250;2024-03-02T12:27:54;9.70;99.90
59311;DHT22;45078;51.654;21.250;2024-03-02T12:30:21;9.70;99.90
59311;DHT22;45078;51.654;21.250;2024-03-02T12:32:48;9.60;99.90
59311;DHT22;45078;51.654;21.250;2024-03-02T12:35:14;9.50;99.90
59311;DHT22;45078;51.654;21.250;2024-03-02T12:37:51;9.50;99.90
59311;DHT22;45078;51.654;21.250;2024-03-02T12:40:18;9.40;99.90
59311;DHT22;45078;51.654;21.250;2024-03-02T12:42:45;9.50;99.90
59311;DHT22;45078;51.654;21.250;2024-03-02T12:45:12;9.40;99.90
59311;DHT22;45078;51.654;21.250;2024-03-02T12:47:40;9.50;99.90
59311;DHT22;45078;51.654;21.250;2024-03-02T12:50:06;9.40;99.90
59311;DHT22;45078;51.654;21.250;2024-03-02T12:52:33;9.50;99.90
59311;DHT22;45078;51.654;21.250;2024-03-02T12:55:06;9.50;99.90
59311;DHT22;45078;51.654;21.250;2024-03-02T12:57:33;9.60;99.90
59311;DHT22;45078;51.654;21.250;2024-03-02T12:59:59;9.70;99.90
59311;DHT22;45078;51.654;21.250;2024-03-02T13:02:31;9.80;99.90
59311;DHT22;45078;51.654;21.250;2024-03-02T13:04:57;9.80;99.90
59311;DHT22;45078;51.654;21.250;2024-03-02T13:07:24;9.80;99.90
59311;DHT22;45078;51.654;21.250;2024-03-02T13:09:51;9.80;99.90
59311;DHT22;45078;51.654;21.250;2024-03-02T13:12:18;9.70;99.90
59311;DHT22;45078;51.654;21.250;2024-03-02T13:14:44;9.70;99.90
59311;DHT22;45078;51.654;21.250;2024-03-02T13:17:13;9.60;99.90
59311;DHT22;45078;51.654;21.250;2024-03-02T13:20:04;9.60;99.90
59311;DHT22;45078;51.654;21.250;2024-03-02T13:22:33;9.60;99.90
59311;DHT22;45078;51.654;21.250;2024-03-02T13:25:02;9.70;99.90
59311;DHT22;45078;51.654;21.250;2024-03-02T13:27:31;9.70;99.90
59311;DHT22;45078;51.654;21.250;2024-03-02T13:29:57;9.70;99.90
59311;DHT22;45078;51.654;21.250;2024-03-02T13:32:24;9.60;99.90
59311;DHT22;45078;51.654;21.250;2024-03-02T13:34:51;9.70;99.90
59311;DHT22;45078;51.654;21.250;2024-03-02T13:37:17;9.60;99.90
59311;DHT22;45078;51.654;21.250;2024-03-02T13:39:43;9.60;99.90
59311;DHT22;45078;51.654;21.250;2024-03-02T13:42:12;9.60;99.90
59311;DHT22;45078;51.654;21.250;2024-03-02T13:44:40;9.70;99.90
59311;DHT22;45078;51.654;21.250;2024-03-02T13:47:05;9.60;99.90
59311;DHT22;45078;51.654;21.250;2024-03-02T13:49:31;9.70;99.90
59311;DHT22;45078;51.654;21.250;2024-03-02T13:52:03;9.60;99.90
59311;DHT22;45078;51.654;21.250;2024-03-02T13:54:40;9.60;99.90
59311;DHT22;45078;51.654;21.250;2024-03-02T13:57:08;9.60;99.90
59311;DHT22;45078;51.654;21.250;2024-03-02T13:59:35;9.60;99.90
59311;DHT22;45078;51.654;21.250;2024-03-02T14:02:04;9.50;99.90
59311;DHT22;45078;51.654;21.250;2024-03-02T14:04:33;9.60;99.90
59311;DHT22;45078;51.654;21.250;2024-03-02T14:07:00;9.50;99.90
59311;DHT22;45078;51.654;21.250;2024-03-02T14:09:26;9.50;99.90
59311;DHT22;45078;51.654;21.250;2024-03-02T14:11:52;9.60;99.90
59311;DHT22;45078;51.654;21.250;2024-03-02T14:14:18;9.50;99.90
59311;DHT22;45078;51.654;21.250;2024-03-02T14:16:44;9.50;99.90
59311;DHT22;45078;51.654;21.250;2024-03-02T14:19:11;9.60;99.90
59311;DHT22;45078;51.654;21.250;2024-03-02T14:21:38;9.50;99.90
59311;DHT22;45078;51.654;21.250;2024-03-02T14:24:04;9.60;99.90
59311;DHT22;45078;51.654;21.250;2024-03-02T14:26:29;9.50;99.90
59311;DHT22;45078;51.654;21.250;2024-03-02T14:28:55;9.50;99.90
59311;DHT22;45078;51.654;21.250;2024-03-02T14:31:21;9.50;99.90
59311;DHT22;45078;51.654;21.250;2024-03-02T14:33:47;9.50;99.90
59311;DHT22;45078;51.654;21.250;2024-03-02T14:36:12;9.40;99.90
59311;DHT22;45078;51.654;21.250;2024-03-02T14:38:39;9.40;99.90
59311;DHT22;45078;51.654;21.250;2024-03-02T14:41:05;9.40;99.90
59311;DHT22;45078;51.654;21.250;2024-03-02T14:43:30;9.40;99.90
59311;DHT22;45078;51.654;21.250;2024-03-02T14:45:56;9.50;99.90
59311;DHT22;45078;51.654;21.250;2024-03-02T14:48:23;9.50;99.90
59311;DHT22;45078;51.654;21.250;2024-03-02T14:50:49;9.50;99.90
59311;DHT22;45078;51.654;21.250;2024-03-02T14:53:15;9.40;99.90
59311;DHT22;45078;51.654;21.250;2024-03-02T14:55:40;9.50;99.90
59311;DHT22;45078;51.654;21.250;2024-03-02T14:58:06;9.50;99.90
59311;DHT22;45078;51.654;21.250;2024-03-02T15:00:33;9.40;99.90
59311;DHT22;45078;51.654;21.250;2024-03-02T15:02:59;9.40;99.90
59311;DHT22;45078;51.654;21.250;2024-03-02T15:05:25;9.40;99.90
59311;DHT22;45078;51.654;21.250;2024-03-02T15:07:52;9.30;99.90
59311;DHT22;45078;51.654;21.250;2024-03-02T15:10:18;9.30;99.90
59311;DHT22;45078;51.654;21.250;2024-03-02T15:12:44;9.30;99.90
59311;DHT22;45078;51.654;21.250;2024-03-02T15:15:10;9.30;99.90
59311;DHT22;45078;51.654;21.250;2024-03-02T15:17:38;9.30;99.90
59311;DHT22;45078;51.654;21.250;2024-03-02T15:20:04;9.30;99.90
59311;DHT22;45078;51.654;21.250;2024-03-02T15:22:32;9.30;99.90
59311;DHT22;45078;51.654;21.250;2024-03-02T15:24:58;9.30;99.90
59311;DHT22;45078;51.654;21.250;2024-03-02T15:27:24;9.30;99.90
59311;DHT22;45078;51.654;21.250;2024-03-02T15:29:50;9.20;99.90
59311;DHT22;45078;51.654;21.250;2024-03-02T15:32:17;9.20;99.90
59311;DHT22;45078;51.654;21.250;2024-03-02T15:34:43;9.20;99.90
59311;DHT22;45078;51.654;21.250;2024-03-02T15:37:09;9.10;99.90